Boulder City, Nevada Weather observations

Data are for observation ending at time listed.
 Day   Time    Ave.   Ave.  Ave.  Vector   Max.   Stn.    Total    Solar   Ave.  
  of    of     Air    Rel.  Wind   Wind    Wind   Baro.  Precip.   Rad.    Soil  
Year   Day     Temp.  Hum.  Speed  Dir.    Gust   Pres.                    Temp. 
2014   (PST)    F      %     mph   deg.    mph     mb.     in.     W/m2     F   
------------------------------------------------------------------------------
 208    5:20   85.6    31    2.5   219      3.4   932.1    0.00      30    95.3
 208    5:30   85.7    31    2.0   208      3.1   932.3    0.00      52    95.2
 208    5:40   86.4    31    2.1   213      3.6   932.5    0.00      59    95.2
 208    5:50   87.7    30    2.2   212      3.1   932.7    0.00      78    95.1
 208    6:00   88.3    30    1.7   210      2.5   932.9    0.00      53    95.0
 208    6:10   88.9    30    1.2   222      3.1   933.1    0.00     142    94.9
 208    6:20   91.0    27    1.1   188      3.4   933.1    0.00     227    94.9
 208    6:30   93.6    25    1.3   184      3.6   933.3    0.00     348    94.8
 208    6:40   94.6    24    1.8   171      4.2   933.7    0.00     360    94.8
 208    6:50   95.2    24    2.7   176      5.4   934.0    0.00     369    94.7
 208    7:00   94.7    24    3.0   200      6.0   934.1    0.00     387    94.6
 208    7:10   94.8    24    4.0   186      8.2   934.4    0.00     412    94.6
 208    7:20   94.5    24    4.8   191      7.9   934.6    0.00     436    94.6
 208    7:30   93.6    24    5.3   200      8.6   934.6    0.00     473    94.6
 208    7:40   93.3    24    4.5   211      7.2   934.6    0.00     541    94.6
 208    7:50   94.0    24    6.4   198     11.0   934.7    0.00     570    94.6
 208    8:00   94.8    25    7.7   182     12.6   934.9    0.00     608    94.7
 208    8:10   95.0    25    7.5   189     12.5   935.1    0.00     620    94.8
 208    8:20   96.0    24    6.6   168     10.4   935.1    0.00     633    94.9
 208    8:30   96.4    24    5.0   143      9.6   935.1    0.00     586    95.0
 208    8:40   97.1    24    4.5   133      9.6   935.1    0.00     599    95.1
 208    8:50   97.3    24    4.2   179      7.2   935.1    0.00     717    95.2
 208    9:00   98.3    24    6.2   152     18.0   935.2    0.00     692    95.4
 208    9:10   96.6    28    7.9   151     18.3   935.5    0.00     672    95.5
 208    9:20   96.0    28    7.8   149     16.2   935.4    0.00     685    95.7
 208    9:30   95.7    29    8.2   140     20.9   935.5    0.00     727    95.9
 208    9:40   94.8    30    7.5   155     17.7   935.6    0.00     693    96.1
 208    9:50   95.8    28    7.1   151     18.5   935.5    0.00     655    96.3
 208   10:00   94.9    30   10.4   141     22.4   935.4    0.00     655    96.4
 208   10:10   94.7    30    9.1   152     25.4   935.3    0.00     657    96.7
 208   10:20   95.4    30    6.8   148     17.5   935.3    0.00     692    96.9
 208   10:30   95.5    29    9.3   164     23.0   935.2    0.00     786    97.1
 208   10:40   95.4    30   10.0   146     21.5   935.1    0.00     802    97.4
 208   10:50   95.4    29    9.4   146     20.8   934.9    0.00     815    97.6
 208   11:00   96.1    28    8.0   153     16.7   934.8    0.00     835    97.8
 208   11:10   96.7    28    8.6   154     20.5   934.7    0.00     849    98.1
 208   11:20   97.0    28    7.5   149     19.6   934.7    0.00     858    98.3
 208   11:30   96.9    27    8.5   157     22.2   934.6    0.00     877    98.5
 208   11:40   97.5    27    8.1   136     19.4   934.5    0.00     878    98.8
 208   11:50   98.4    26    6.5   127     14.8   934.4    0.00     878    99.0
 208   12:00   98.3    26    7.7   136     22.6   934.5    0.00     876    99.2
 208   12:10   98.0    26    8.4   129     18.7   934.3    0.00     872    99.4
 208   12:20   99.2    25    6.8   143     17.8   934.2    0.00     866    99.7
 208   12:30   99.6    25    7.4   152     16.5   934.2    0.00     868    99.9
 208   12:40   99.1    25    5.2   136     12.3   934.1    0.00     862    100.2
 208   12:50   99.2    25    8.7   146     18.4   934.0    0.00     842    100.3
 208   13:00   99.1    25    8.3   131     18.1   934.0    0.00     843    100.6
 208   13:10   99.2    24    6.3   128     15.4   933.6    0.00     828    100.8
 208   13:20  100.6    23    5.3   128     13.4   933.5    0.00     823    101.1
 208   13:30  100.3    23    6.4   123     14.0   933.4    0.00     808    101.3
 208   13:40  100.2    23    6.2   143     14.8   933.3    0.00     796    101.6
 208   13:50  101.0    23    5.8   144     14.6   933.3    0.00     777    101.9
 208   14:00  101.0    23    6.0   123     13.4   933.3    0.00     756    102.1
 208   14:10  101.1    22    6.2   161     14.7   933.3    0.00     735    102.2
 208   14:20  101.8    22    5.6   111     11.4   933.1    0.00     730    102.4
 208   14:30  103.0    21    4.8   140     11.5   932.9    0.00     706    102.7
 208   14:40  102.6    22    4.6   140     10.7   932.7    0.00     685    102.8
 208   14:50  102.4    22    5.6    97     13.2   932.6    0.00     658    103.0
 208   15:00  102.6    21    4.8   107     10.0   932.6    0.00     655    103.1
 208   15:10  102.7    21    6.1   129     12.2   932.5    0.00     594    103.2
 208   15:20  102.1    22    5.8   106     10.2   932.5    0.00     422    103.3
 208   15:30  101.4    22    6.0   114     11.9   932.3    0.00     357    103.4
 208   15:40  101.0    22    4.9   122     10.4   932.2    0.00     274    103.4
 208   15:50   99.5    23    4.9    84     12.6   932.0    0.00     184    103.4
 208   16:00   99.8    23    2.8   109      8.7   931.9    0.00     238    103.3
 208   16:10   99.9    22    3.0   206      8.8   932.0    0.00     373    103.3
 208   16:20   97.9    22    5.0   287     17.8   932.3    0.00     193    103.3
 208   16:30   95.0    23    6.9   297     18.3   932.3    0.00     123    103.2
 208   16:40   94.5    24    6.0   246     14.8   932.3    0.00     137    103.1
 208   16:50   94.0    24    5.3   285     16.9   932.0    0.00     177    103.1
 208   17:00   92.8    26    4.9   281     15.1   931.9    0.00     129    103.0
 208   17:10   92.0    27    4.1   277     10.9   932.0    0.00      93    102.9
 208   17:20   91.6    27    4.9   288     12.3   931.9    0.00      81    102.8
 208   17:30   91.6    27    5.3   296     13.2   931.9    0.00      47    102.8
 208   17:40   91.6    27    4.0   304     15.2   932.0    0.00      18    102.7
 208   17:50   87.1    46    3.8   319     12.3   932.8    0.11      25    102.6
 208   18:00   77.7    69    3.7   317     18.9   932.3    0.01      17    102.3
 208   18:10   80.4    56    6.6   306     14.1   931.7    0.00       4    102.1
 208   18:20   81.0    58    6.3    75     18.9   932.4    0.04       2    102.0
 208   18:30   74.2    74    9.5    98     31.5   933.1    0.23       2    101.0
 208   18:40   73.7    76    4.0   206      6.8   932.0    0.01       0    97.5
 208   18:50   76.6    67    5.9   239      9.3   931.9    0.00       2    96.1
 208   19:00   78.8    61    4.9   250      9.8   931.9    0.00       1    95.6
 208   19:10   79.0    64    6.9   200     14.8   931.9    0.00       0    95.3
 208   19:20   78.6    62    4.8   243     10.4   932.1    0.00       0    95.0
 208   19:30   79.1    60    2.9   260     10.1   932.1    0.00       0    94.8
 208   19:40   79.8    56    3.4   296     10.0   932.4    0.00       0    94.6
 208   19:50   80.3    53    4.7   297     12.0   932.6    0.00       0    94.4
 208   20:00   81.2    49    4.1   306      9.3   932.8    0.00       0    94.3
 208   20:10   82.0    47    3.8   302      8.3   933.0    0.00       0    94.1
 208   20:20   82.3    46    3.5   302      8.9   933.2    0.00       0    94.0
 208   20:30   82.5    44    3.0   304      9.1   933.4    0.00       0    93.8
 208   20:40   83.5    41    3.3   300     13.6   933.5    0.00       0    93.7
 208   20:50   83.5    42    4.2   294     12.9   933.5    0.00       0    93.5
 208   21:00   82.9    43    5.4   301     12.9   933.5    0.00       0    93.4
 208   21:10   82.6    44    5.0   303     11.6   933.4    0.00       0    93.3
 208   21:20   82.1    45    5.2   299     11.5   933.3    0.00       0    93.2
 208   21:30   81.8    47    2.2   317      8.6   933.5    0.00       0    93.1
 208   21:40   81.8    47    3.4   308     10.4   933.7    0.00       0    92.9
 208   21:50   81.9    46    2.0     1      6.6   933.8    0.00       0    92.8
 208   22:00   83.3    41    1.8   354      5.6   933.9    0.00       0    92.7
 208   22:10   83.2    42    1.3     0      4.5   933.9    0.00       0    92.6
 208   22:20   82.9    43    0.4   358      1.8   933.8    0.00       0    92.5
 208   22:30   82.2    49    0.7   116      3.0   933.8    0.00       0    92.4
 208   22:40   81.6    49    1.4   190      3.4   933.6    0.00       0    92.3
 208   22:50   82.1    46    1.5   232      5.8   933.6    0.00       0    92.2
 208   23:00   82.6    44    4.4   199      7.4   933.7    0.00       0    92.1
 208   23:10   82.3    45    2.5   236      4.5   933.7    0.00       0    92.0
 208   23:20   82.1    44    3.5   228      6.4   933.7    0.00       0    92.0
 208   23:30   82.3    44    3.9   240      7.2   933.8    0.00       0    91.9
 208   23:40   82.1    43    1.8   257      5.4   933.7    0.00       0    91.8
 208   23:50   82.5    43    1.5   289      3.1   933.7    0.00       0    91.7
 209    0:00   82.2    45    3.5   235      5.1   933.8    0.00       0    91.7
 209    0:10   82.3    45    2.7   219      4.7   933.9    0.00       0    91.6
 209    0:20   82.3    45    3.0   212      5.1   933.9    0.00       0    91.5
 209    0:30   81.4    49    3.9   230      6.1   934.0    0.00       0    91.4
 209    0:40   79.9    57    1.1   337      3.9   933.8    0.01       0    91.3
 209    0:50   81.2    48    2.2   360      4.4   933.6    0.00       0    91.3
 209    1:00   81.9    52    3.6    13      7.7   933.7    0.00       0    91.2
 209    1:10   79.2    64    4.1    22      7.2   933.9    0.00       0    91.2
 209    1:20   78.5    64    2.7    18      5.4   933.9    0.00       0    91.1
 209    1:30   78.6    63    4.3    17      9.4   933.9    0.00       0    91.0
 209    1:40   79.2    61    4.6    24      8.5   934.0    0.00       0    91.0
 209    1:50   78.2    66    3.9    16      5.6   934.0    0.00       0    90.9
 209    2:00   76.5    73    2.5     5      7.3   933.7    0.01       0    90.8
 209    2:10   76.3    72    2.0    87      4.5   933.5    0.00       0    90.7
 209    2:20   77.8    62    1.3    10      3.6   933.5    0.00       0    90.6
 209    2:30   78.6    64    0.6    40      2.2   933.5    0.00       0    90.6
 209    2:40   78.1    66    1.1    25      2.9   933.5    0.00       0    90.5
 209    2:50   77.9    68    1.3    22      2.9   933.6    0.00       0    90.4
 209    3:00   77.8    65    0.5   284      3.7   933.7    0.00       0    90.3
 209    3:10   78.4    59    1.4    30      3.6   933.8    0.00       0    90.2
 209    3:20   78.9    60    2.8     7      6.0   934.0    0.00       0    90.2
 209    3:30   78.3    63    1.7     9      5.6   934.1    0.00       0    90.1
 209    3:40   77.9    64    1.7    15      4.4   934.2    0.00       0    90.0
 209    3:50   78.0    62    2.1     1      6.6   934.4    0.00       0    89.9
 209    4:00   77.8    64    2.5     7      5.0   934.4    0.00       0    89.8
 209    4:10   77.0    67    2.1    24      3.9   934.4    0.00       0    89.8
 209    4:20   76.4    69    1.3     0      3.7   934.4    0.00       0    89.7
 209    4:30   75.7    72    0.7   270      1.7   934.4    0.00       0    89.6
 209    4:40   75.4    72    0.7   293      2.0   934.5    0.00       0    89.5
 209    4:50   75.4    70    0.6    57      1.7   934.4    0.00       0    89.4
 209    5:00   75.4    70    0.2    17      1.8   934.5    0.00       5    89.3
 209    5:10   76.3    64    2.0    12      5.4   934.7    0.00       7    89.3

Return to Boulder City, Nevada graphs page.


Western Regional Climate Center,wrcc@dri.edu